Time;durP1;ratioP1;P1;durP2;ratioP2;P2;SDS_P1;SDS_P2;PMS_P1;PMS_P2;Temp;Humidity;BMP_temperature;BMP_pressure;BME280_temperature;BME280_humidity;BME280_pressure;Samples;Min_cycle;Max_cycle;Signal;HPM_P1;HPM_P2
2023/04/11 00:00:01;;;;;;;7.90;2.72;;;;;;;3.16;100.00;100426.09;4995868;28;20102;-89
2023/04/11 00:02:29;;;;;;;22.15;2.00;;;;;;;3.36;100.00;100458.00;4995981;28;20034;-91
2023/04/11 00:04:56;;;;;;;11.25;2.92;;;;;;;3.40;100.00;100454.94;4996318;28;20100;-90
2023/04/11 00:07:25;;;;;;;5.95;2.08;;;;;;;3.34;100.00;100455.50;5014211;28;20479;-90
2023/04/11 00:09:50;;;;;;;7.85;1.90;;;;;;;3.27;100.00;100446.38;4979701;28;20103;-90
2023/04/11 00:12:21;;;;;;;9.65;1.88;;;;;;;3.02;100.00;100414.03;4995376;28;20480;-91
2023/04/11 00:14:52;;;;;;;8.75;2.33;;;;;;;3.13;100.00;100430.84;4995116;28;20101;-92
2023/04/11 00:17:19;;;;;;;4.20;1.15;;;;;;;3.24;100.00;100433.38;4996078;28;20038;-92
2023/04/11 00:19:45;;;;;;;5.35;1.45;;;;;;;3.40;100.00;100423.06;4995680;28;20041;-91
2023/04/11 00:22:14;;;;;;;8.40;1.58;;;;;;;3.61;100.00;100433.56;4995267;28;20384;-92
2023/04/11 00:24:41;;;;;;;9.73;1.58;;;;;;;3.68;100.00;100416.09;4983174;28;20054;-90
2023/04/11 00:27:11;;;;;;;1.65;1.00;;;;;;;3.89;100.00;100431.03;4992469;28;20369;-94
2023/04/11 00:29:40;;;;;;;5.30;1.98;;;;;;;4.08;100.00;100432.88;4969662;28;20097;-92
2023/04/11 00:32:08;;;;;;;6.93;2.38;;;;;;;3.93;100.00;100401.38;5012393;28;20030;-93
2023/04/11 00:34:36;;;;;;;5.97;1.23;;;;;;;3.86;100.00;100405.56;4990803;28;20040;-89
2023/04/11 00:37:02;;;;;;;6.20;1.83;;;;;;;3.60;100.00;100389.38;4963750;28;20046;-91
2023/04/11 00:39:29;;;;;;;7.55;1.55;;;;;;;3.53;100.00;100407.69;4981814;28;20038;-91
2023/04/11 00:42:06;;;;;;;4.82;1.70;;;;;;;3.30;100.00;100411.56;5008337;28;20034;-93
2023/04/11 00:44:32;;;;;;;3.78;1.35;;;;;;;3.12;100.00;100415.84;5000450;28;20067;-93
2023/04/11 00:47:02;;;;;;;2.67;1.40;;;;;;;2.96;100.00;100409.25;4996179;28;20461;-91
2023/04/11 00:49:30;;;;;;;4.00;1.20;;;;;;;2.80;100.00;100401.78;4995865;28;20091;-89
2023/04/11 00:51:58;;;;;;;6.53;2.17;;;;;;;2.63;100.00;100403.25;4986147;28;20044;-92
2023/04/11 00:54:28;;;;;;;8.20;2.15;;;;;;;2.47;100.00;100402.91;5010004;28;20542;-90
2023/04/11 00:57:03;;;;;;;;;;;;;;;2.39;100.00;100402.75;4998814;28;20107;-91
2023/04/11 00:59:51;;;;;;;3.92;1.80;;;;;;;2.18;100.00;100406.25;4987399;28;19961;-93
2023/04/11 01:02:20;;;;;;;6.35;1.38;;;;;;;1.86;100.00;100411.63;4976543;28;20092;-88
2023/04/11 01:04:49;;;;;;;5.53;1.45;;;;;;;1.63;100.00;100399.44;4984197;28;20392;-89
2023/04/11 01:07:15;;;;;;;3.30;1.30;;;;;;;1.40;100.00;100378.31;5004516;28;20065;-91
2023/04/11 01:09:44;;;;;;;2.63;1.23;;;;;;;1.50;100.00;100386.34;4978681;28;20034;-90
2023/04/11 01:12:14;;;;;;;5.10;1.48;;;;;;;1.76;100.00;100397.44;4999606;28;20068;-89
2023/04/11 01:14:41;;;;;;;4.70;1.40;;;;;;;1.69;100.00;100365.31;4968562;28;20038;-88
2023/04/11 01:17:06;;;;;;;7.97;1.38;;;;;;;2.05;100.00;100395.00;5011952;28;20074;-88
2023/04/11 01:19:33;;;;;;;4.20;1.13;;;;;;;2.25;100.00;100395.09;4983930;28;20037;-89
2023/04/11 01:22:01;;;;;;;1.10;0.80;;;;;;;2.25;100.00;100365.91;4996183;28;20065;-89
2023/04/11 01:24:27;;;;;;;4.13;1.50;;;;;;;2.33;100.00;100355.50;4985350;28;20063;-88
2023/04/11 01:26:53;;;;;;;7.10;1.40;;;;;;;2.41;100.00;100367.13;4965686;28;20030;-89
2023/04/11 01:29:22;;;;;;;3.85;0.90;;;;;;;2.37;100.00;100362.22;4986064;28;20481;-90
2023/04/11 01:31:50;;;;;;;8.48;1.15;;;;;;;2.53;100.00;100386.44;4996854;28;20053;-89
2023/04/11 01:34:19;;;;;;;2.70;1.20;;;;;;;2.38;100.00;100369.19;4997031;28;20037;-91
2023/04/11 01:36:45;;;;;;;2.03;0.80;;;;;;;2.58;100.00;100389.56;5006250;28;20045;-91
2023/04/11 01:39:13;;;;;;;2.05;0.80;;;;;;;2.71;100.00;100394.63;5008028;28;20083;-93
2023/04/11 01:41:42;;;;;;;6.13;1.48;;;;;;;2.73;100.00;100374.09;5015191;28;20034;-90
2023/04/11 01:44:13;;;;;;;3.90;1.35;;;;;;;2.79;100.00;100367.41;4980081;28;20030;-91
2023/04/11 01:46:40;;;;;;;9.10;1.33;;;;;;;2.93;100.00;100382.13;4957205;28;20140;-90
2023/04/11 01:49:09;;;;;;;1.67;0.98;;;;;;;2.89;100.00;100380.72;5012470;28;20037;-89
2023/04/11 01:51:38;;;;;;;6.68;1.35;;;;;;;2.89;100.00;100362.97;4991755;28;20049;-90
2023/04/11 01:54:07;;;;;;;0.60;0.60;;;;;;;3.07;100.00;100373.78;4976808;28;20049;-91
2023/04/11 01:56:32;;;;;;;5.38;1.20;;;;;;;3.18;100.00;100356.88;4977077;28;20052;-89
2023/04/11 01:59:00;;;;;;;2.92;1.65;;;;;;;3.26;100.00;100365.84;4990569;28;20066;-93
2023/04/11 02:01:26;;;;;;;2.92;1.10;;;;;;;3.08;100.00;100338.25;5004088;28;20029;-94
2023/04/11 02:03:51;;;;;;;4.97;1.33;;;;;;;3.23;100.00;100352.00;4977254;28;20080;-91
2023/04/11 02:06:17;;;;;;;7.55;1.27;;;;;;;3.23;100.00;100346.69;4990551;28;20060;-91
2023/04/11 02:08:48;;;;;;;11.07;1.75;;;;;;;3.09;100.00;100306.22;5000678;28;20042;-90
2023/04/11 02:11:14;;;;;;;1.55;0.95;;;;;;;3.23;100.00;100322.78;4997645;28;20046;-92
2023/04/11 02:13:43;;;;;;;3.95;1.33;;;;;;;3.41;100.00;100333.53;4975893;28;20072;-91
2023/04/11 02:16:16;;;;;;;7.95;1.58;;;;;;;3.54;100.00;100334.06;5011434;28;20037;-92
2023/04/11 02:18:43;;;;;;;3.22;1.30;;;;;;;3.37;100.00;100314.38;4978087;28;20096;-89
2023/04/11 02:21:12;;;;;;;7.13;1.63;;;;;;;3.29;100.00;100324.88;4992907;28;20065;-93
2023/04/11 02:23:46;;;;;;;2.92;1.27;;;;;;;3.03;100.00;100290.88;4994822;28;20029;-91
2023/04/11 02:26:15;;;;;;;4.07;1.33;;;;;;;3.06;100.00;100311.84;4977329;28;20029;-91
2023/04/11 02:28:41;;;;;;;3.35;1.02;;;;;;;3.01;100.00;100305.25;4992131;28;20047;-91
2023/04/11 02:31:07;;;;;;;6.88;1.48;;;;;;;3.00;100.00;100291.16;4966051;28;20101;-92
2023/04/11 02:33:33;;;;;;;2.28;0.98;;;;;;;3.13;100.00;100292.69;4977776;28;20035;-93
2023/04/11 02:36:02;;;;;;;10.15;1.33;;;;;;;3.25;100.00;100281.78;5009025;28;20030;-92
2023/04/11 02:38:34;;;;;;;12.82;1.60;;;;;;;3.12;100.00;100253.81;4998348;28;20025;-91
2023/04/11 02:41:03;;;;;;;7.35;1.25;;;;;;;3.04;100.00;100270.44;5011971;28;20023;-91
2023/04/11 02:43:29;;;;;;;6.95;1.92;;;;;;;2.74;100.00;100260.78;4999714;28;20050;-92
2023/04/11 02:45:55;;;;;;;4.53;1.10;;;;;;;2.42;100.00;100245.91;5009623;28;20129;-91
2023/04/11 02:48:30;;;;;;;7.97;1.60;;;;;;;2.26;100.00;100258.84;5011710;28;20536;-92
2023/04/11 02:50:56;;;;;;;6.43;1.40;;;;;;;2.26;100.00;100266.81;4988470;28;20409;-91
2023/04/11 02:53:25;;;;;;;9.18;1.42;;;;;;;2.32;100.00;100279.53;4993146;28;20484;-90
2023/04/11 02:55:51;;;;;;;3.05;1.08;;;;;;;2.27;100.00;100274.63;5006068;28;20041;-91
2023/04/11 02:58:18;;;;;;;1.42;1.00;;;;;;;2.39;100.00;100288.66;5000454;28;20034;-89
2023/04/11 03:00:44;;;;;;;8.52;1.77;;;;;;;2.35;100.00;100282.75;4974852;28;20484;-90
2023/04/11 03:03:12;;;;;;;3.55;1.20;;;;;;;2.14;100.00;100253.66;4995322;28;20076;-91
2023/04/11 03:05:38;;;;;;;2.80;1.00;;;;;;;2.10;100.00;100264.66;4974400;28;20045;-91
2023/04/11 03:08:09;;;;;;;5.35;1.20;;;;;;;2.03;100.00;100272.28;4993481;28;20050;-91
2023/04/11 03:10:37;;;;;;;6.03;1.45;;;;;;;1.95;100.00;100245.59;5008665;28;20100;-90
2023/04/11 03:13:04;;;;;;;4.47;1.02;;;;;;;2.10;100.00;100241.63;4981477;28;20121;-90
2023/04/11 03:15:31;;;;;;;5.28;1.63;;;;;;;2.40;100.00;100255.81;5026027;28;20026;-91
2023/04/11 03:17:57;;;;;;;3.72;1.10;;;;;;;2.49;100.00;100233.78;4993053;28;20104;-89
2023/04/11 03:20:26;;;;;;;0.80;0.75;;;;;;;2.70;100.00;100224.84;4991275;28;20050;-92
2023/04/11 03:22:55;;;;;;;5.03;1.30;;;;;;;3.14;100.00;100273.13;4977116;28;20392;-90
2023/04/11 03:25:21;;;;;;;1.80;0.80;;;;;;;3.06;100.00;100221.53;4997399;28;20093;-91
2023/04/11 03:27:49;;;;;;;4.07;1.00;;;;;;;3.44;100.00;100253.50;5007982;28;20033;-90
2023/04/11 03:30:14;;;;;;;6.63;1.20;;;;;;;3.66;100.00;100255.84;5018197;28;20049;-90
2023/04/11 03:32:40;;;;;;;4.85;0.98;;;;;;;3.66;100.00;100225.78;4986793;28;20046;-90
2023/04/11 03:35:06;;;;;;;2.58;1.13;;;;;;;3.96;100.00;100241.47;5026024;28;20152;-92
2023/04/11 03:37:32;;;;;;;5.38;1.35;;;;;;;3.97;100.00;100224.56;4997142;28;20041;-91
2023/04/11 03:39:58;;;;;;;5.45;1.00;;;;;;;4.24;100.00;100241.50;4975809;28;20041;-91
2023/04/11 03:42:26;;;;;;;3.70;0.90;;;;;;;4.24;100.00;100224.72;4988893;28;20034;-89
2023/04/11 03:44:51;;;;;;;2.60;0.88;;;;;;;4.34;100.00;100231.66;4989014;28;20044;-90
2023/04/11 03:47:17;;;;;;;2.45;1.20;;;;;;;4.33;100.00;100231.78;5013366;28;20030;-89
2023/04/11 03:49:43;;;;;;;2.13;0.68;;;;;;;4.18;100.00;100203.03;4993013;28;20386;-90
2023/04/11 03:52:08;;;;;;;3.17;1.10;;;;;;;4.28;100.00;100216.25;4967193;28;20038;-90
2023/04/11 03:54:38;;;;;;;1.73;0.90;;;;;;;4.28;100.00;100194.97;4978923;28;20077;-92
2023/04/11 03:57:04;;;;;;;2.17;1.00;;;;;;;4.43;100.00;100205.13;5006680;28;20037;-91
2023/04/11 03:59:33;;;;;;;0.80;0.80;;;;;;;4.45;100.00;100197.84;4998141;28;20033;-88
2023/04/11 04:02:01;;;;;;;2.75;0.85;;;;;;;4.52;100.00;100206.88;5009055;28;20042;-88
2023/04/11 04:04:27;;;;;;;2.72;1.30;;;;;;;4.50;100.00;100193.75;5016763;28;20034;-92
2023/04/11 04:06:56;;;;;;;3.63;1.50;;;;;;;4.50;100.00;100190.22;4982519;28;20034;-88
2023/04/11 04:09:23;;;;;;;2.58;0.88;;;;;;;4.57;100.00;100204.59;4995476;28;20038;-90
2023/04/11 04:11:56;;;;;;;4.20;1.00;;;;;;;4.41;100.00;100184.81;5015158;28;20037;-90
2023/04/11 04:14:29;;;;;;;3.78;0.95;;;;;;;4.31;100.00;100177.88;5014070;28;20038;-88
2023/04/11 04:16:58;;;;;;;;;;;;;;;4.21;100.00;100177.09;4996747;28;20038;-89
2023/04/11 04:19:23;;;;;;;0.50;0.50;;;;;;;4.03;100.00;100161.09;4964366;28;19913;-88
2023/04/11 04:21:49;;;;;;;3.10;0.75;;;;;;;3.90;100.00;100151.63;4994879;28;20030;-88
2023/04/11 04:24:17;;;;;;;2.72;0.98;;;;;;;3.72;100.00;100132.97;4998169;28;20052;-88
2023/04/11 04:26:48;;;;;;;4.38;0.95;;;;;;;3.76;100.00;100160.13;4991710;28;20117;-88
2023/04/11 04:29:17;;;;;;;3.28;1.20;;;;;;;3.62;100.00;100139.31;5000657;28;20049;-90
2023/04/11 04:31:51;;;;;;;6.80;0.90;;;;;;;3.50;100.00;100134.19;5010137;28;20038;-90
2023/04/11 04:34:20;;;;;;;2.90;0.90;;;;;;;3.46;100.00;100146.06;5006991;28;20045;-89
2023/04/11 04:36:48;;;;;;;4.97;1.23;;;;;;;3.26;100.00;100128.53;4994169;28;20038;-88
2023/04/11 04:39:19;;;;;;;5.47;0.80;;;;;;;3.21;100.00;100134.25;4993568;28;20124;-90
2023/04/11 04:41:56;;;;;;;0.60;0.60;;;;;;;3.16;100.00;100133.03;4988505;28;20030;-91
2023/04/11 04:44:26;;;;;;;2.50;1.00;;;;;;;3.05;100.00;100129.53;4991953;28;20144;-90
2023/04/11 04:46:57;;;;;;;8.20;3.28;;;;;;;3.02;100.00;100116.56;4977315;28;20037;-91
2023/04/11 04:49:25;;;;;;;12.23;7.03;;;;;;;3.00;100.00;100112.38;4986280;28;20038;-91
2023/04/11 04:51:54;;;;;;;7.38;3.10;;;;;;;2.97;100.00;100113.50;5011465;28;20132;-90
2023/04/11 04:54:22;;;;;;;8.15;4.10;;;;;;;2.88;100.00;100092.25;4980299;28;20069;-90
2023/04/11 04:56:49;;;;;;;11.38;5.60;;;;;;;2.98;100.00;100104.53;4980312;28;20384;-89
2023/04/11 04:59:22;;;;;;;27.33;11.05;;;;;;;2.88;100.00;100079.81;4968597;28;20030;-88
2023/04/11 05:01:52;;;;;;;12.90;7.30;;;;;;;2.95;100.00;100096.03;5011298;28;20030;-91
2023/04/11 05:04:25;;;;;;;8.95;3.58;;;;;;;2.60;100.00;100036.44;5005182;28;20035;-88
2023/04/11 05:06:54;;;;;;;4.53;3.00;;;;;;;2.80;100.00;100066.41;5006051;28;20038;-90
2023/04/11 05:09:22;;;;;;;4.75;1.35;;;;;;;2.88;100.00;100077.16;4991074;28;20030;-88
2023/04/11 05:11:49;;;;;;;2.40;1.08;;;;;;;2.77;100.00;100054.25;4995762;28;20033;-88
2023/04/11 05:14:17;;;;;;;2.53;1.38;;;;;;;2.86;100.00;100073.81;5008272;28;20042;-88
2023/04/11 05:16:47;;;;;;;2.30;1.15;;;;;;;2.80;100.00;100061.94;5007374;28;20069;-91
2023/04/11 05:19:12;;;;;;;6.07;1.23;;;;;;;2.82;100.00;100067.13;4981001;28;20030;-89
2023/04/11 05:21:38;;;;;;;2.78;0.95;;;;;;;2.75;100.00;100063.34;5008914;28;20091;-89
2023/04/11 05:24:06;;;;;;;1.75;1.42;;;;;;;2.61;100.00;100044.22;5002843;28;20088;-90
2023/04/11 05:26:33;;;;;;;5.40;0.98;;;;;;;2.75;100.00;100061.56;4991404;28;20037;-90
2023/04/11 05:28:59;;;;;;;1.23;1.00;;;;;;;2.59;100.00;100040.91;5001967;28;20403;-90
2023/04/11 05:31:25;;;;;;;3.95;1.20;;;;;;;2.64;100.00;100054.56;5010685;28;20038;-90
2023/04/11 05:33:51;;;;;;;2.00;1.02;;;;;;;2.59;100.00;100043.56;4976713;28;20061;-89
2023/04/11 05:36:21;;;;;;;3.55;1.33;;;;;;;2.70;100.00;100047.88;4999909;28;20034;-88
2023/04/11 05:38:48;;;;;;;1.85;0.82;;;;;;;2.72;100.00;100045.06;5001361;28;20026;-88
2023/04/11 05:41:15;;;;;;;5.45;1.30;;;;;;;2.85;100.00;100048.25;5010880;28;20034;-90
2023/04/11 05:43:45;;;;;;;2.50;0.82;;;;;;;2.81;100.00;100017.66;5006717;28;20046;-90
2023/04/11 05:46:12;;;;;;;3.65;0.80;;;;;;;2.95;100.00;100017.19;4994152;28;20141;-89
2023/04/11 05:48:42;;;;;;;3.60;1.17;;;;;;;3.19;100.00;100032.63;4995337;28;20033;-90
2023/04/11 05:51:08;;;;;;;4.35;1.85;;;;;;;3.21;100.00;99997.94;5011773;28;20551;-90
2023/04/11 05:53:34;;;;;;;3.95;1.10;;;;;;;3.45;100.00;99995.56;4979802;28;20125;-90
2023/04/11 05:56:00;;;;;;;3.60;1.73;;;;;;;3.46;100.00;99981.28;4988370;28;20369;-90
2023/04/11 05:58:30;;;;;;;1.63;1.08;;;;;;;3.69;100.00;99999.50;4996644;28;20030;-88
2023/04/11 06:00:58;;;;;;;5.30;1.40;;;;;;;3.78;100.00;99995.91;4997766;28;20042;-89
2023/04/11 06:03:25;;;;;;;6.78;2.35;;;;;;;3.96;100.00;100015.38;4995163;28;20035;-90
2023/04/11 06:05:52;;;;;;;2.78;1.70;;;;;;;3.82;100.00;99976.03;4991591;28;20055;-90
2023/04/11 06:08:23;;;;;;;6.50;0.93;;;;;;;3.99;100.00;99977.00;5032825;28;20546;-90
2023/04/11 06:10:51;;;;;;;6.95;2.03;;;;;;;4.16;100.00;99978.00;4977648;28;20530;-90
2023/04/11 06:13:16;;;;;;;3.55;1.13;;;;;;;4.34;100.00;99981.47;5008953;28;20117;-89
2023/04/11 06:15:42;;;;;;;5.10;1.20;;;;;;;4.54;100.00;99991.94;4976306;28;20121;-89
2023/04/11 06:18:08;;;;;;;5.60;1.45;;;;;;;4.38;100.00;99961.53;4988753;28;20052;-90
2023/04/11 06:20:39;;;;;;;5.85;1.50;;;;;;;4.71;100.00;99993.72;4989856;28;20480;-89
2023/04/11 06:23:08;;;;;;;4.95;1.35;;;;;;;4.55;100.00;99950.97;4996952;28;20484;-89
2023/04/11 06:25:37;;;;;;;4.63;1.15;;;;;;;4.84;100.00;99983.47;4998680;28;20132;-89
2023/04/11 06:28:10;;;;;;;5.72;1.30;;;;;;;4.62;100.00;99930.75;4986214;28;20496;-90
2023/04/11 06:30:35;;;;;;;4.53;1.10;;;;;;;4.91;100.00;99975.66;4980499;28;20081;-89
2023/04/11 06:33:01;;;;;;;4.55;1.30;;;;;;;4.75;100.00;99932.97;4972887;28;20400;-90
2023/04/11 06:35:26;;;;;;;1.63;1.00;;;;;;;4.96;100.00;99959.22;4979606;28;20490;-89
2023/04/11 06:37:52;;;;;;;2.10;0.88;;;;;;;4.89;100.00;99942.19;4961761;28;20034;-88
2023/04/11 06:40:24;;;;;;;3.92;1.00;;;;;;;5.01;100.00;99962.25;5003082;28;20042;-89
2023/04/11 06:42:50;;;;;;;2.92;1.10;;;;;;;4.90;100.00;99923.41;4982853;28;20033;-88
2023/04/11 06:45:24;;;;;;;4.47;1.10;;;;;;;4.95;100.00;99904.25;5001953;28;20034;-89
2023/04/11 06:47:52;;;;;;;4.70;1.23;;;;;;;5.20;100.00;99923.84;4989563;28;20415;-89
2023/04/11 06:50:23;;;;;;;5.78;1.13;;;;;;;5.41;100.00;99934.91;5017336;28;20467;-89
2023/04/11 06:52:52;;;;;;;3.83;1.02;;;;;;;5.38;100.00;99910.41;4990348;28;20085;-88
2023/04/11 06:55:17;;;;;;;4.25;1.50;;;;;;;5.29;100.00;99875.75;4990445;28;20038;-89
2023/04/11 06:57:45;;;;;;;7.22;1.45;;;;;;;5.64;100.00;99916.47;4973271;28;20061;-88
2023/04/11 07:00:16;;;;;;;2.85;1.10;;;;;;;5.52;100.00;99888.44;4992891;28;20038;-89
2023/04/11 07:02:52;;;;;;;2.97;1.00;;;;;;;5.58;100.00;99895.75;5005145;28;20045;-89
2023/04/11 07:05:19;;;;;;;4.20;1.10;;;;;;;5.61;100.00;99902.59;5012890;28;20025;-89
2023/04/11 07:07:45;;;;;;;2.90;1.15;;;;;;;5.60;100.00;99900.94;5011561;28;20145;-90
2023/04/11 07:10:13;;;;;;;2.78;1.20;;;;;;;5.46;100.00;99881.91;4976047;28;20480;-90
2023/04/11 07:12:39;;;;;;;2.10;1.17;;;;;;;5.22;100.00;99841.91;4978180;28;20034;-90
2023/04/11 07:15:12;;;;;;;12.88;3.20;;;;;;;5.36;100.00;99875.91;5013593;28;21866;-89
2023/04/11 07:17:39;;;;;;;7.78;2.65;;;;;;;5.29;100.00;99870.41;4962652;28;20041;-90
2023/04/11 07:20:08;;;;;;;7.70;1.48;;;;;;;5.24;100.00;99855.91;4997371;28;20411;-90
2023/04/11 07:22:59;;;;;;;4.20;1.30;;;;;;;5.31;100.00;99866.72;4987108;28;20061;-90
2023/04/11 07:25:29;;;;;;;;;;;;;;;5.31;100.00;99872.06;5006216;28;20500;-87
2023/04/11 07:27:55;;;;;;;2.65;0.93;;;;;;;5.26;100.00;99864.56;5008938;28;19913;-88
2023/04/11 07:30:22;;;;;;;3.38;0.93;;;;;;;5.16;100.00;99843.41;4978985;28;20113;-89
2023/04/11 07:32:53;;;;;;;5.78;1.60;;;;;;;5.19;100.00;99837.72;4989270;28;20117;-88
2023/04/11 07:35:19;;;;;;;8.48;2.22;;;;;;;5.24;100.00;99835.41;5005055;28;20392;-86
2023/04/11 07:37:45;;;;;;;5.63;1.30;;;;;;;5.28;100.00;99828.75;4998416;28;20045;-86
2023/04/11 07:40:13;;;;;;;1.55;1.23;;;;;;;5.51;100.00;99828.13;4986259;28;20050;-87
2023/04/11 07:42:46;;;;;;;1.65;1.00;;;;;;;5.68;100.00;99820.94;4996008;28;20065;-87
2023/04/11 07:45:12;;;;;;;2.45;0.90;;;;;;;5.74;100.00;99796.25;4996279;28;20030;-92
2023/04/11 07:47:38;;;;;;;1.20;0.90;;;;;;;6.07;100.00;99812.25;4997518;28;20038;-87
2023/04/11 07:50:04;;;;;;;0.70;0.70;;;;;;;6.20;100.00;99796.56;4980391;28;20105;-91
2023/04/11 07:52:30;;;;;;;1.00;0.90;;;;;;;6.58;100.00;99813.59;4963849;28;20527;-88
2023/04/11 07:54:55;;;;;;;1.17;0.93;;;;;;;6.63;100.00;99794.38;4995361;28;20022;-89
2023/04/11 07:57:21;;;;;;;0.70;0.70;;;;;;;6.74;100.00;99780.63;4980146;28;20030;-89
2023/04/11 07:59:47;;;;;;;2.22;1.20;;;;;;;6.82;100.00;99758.38;4979773;28;20503;-88
2023/04/11 08:02:12;;;;;;;6.93;0.80;;;;;;;7.07;100.00;99742.22;4979697;28;20026;-88
2023/04/11 08:04:38;;;;;;;4.15;0.88;;;;;;;7.25;100.00;99750.75;5012140;28;20427;-90
2023/04/11 08:07:03;;;;;;;0.70;0.70;;;;;;;7.35;100.00;99734.47;4998224;28;20088;-88
2023/04/11 08:09:29;;;;;;;2.10;1.00;;;;;;;7.49;100.00;99731.00;5014580;28;20038;-86
2023/04/11 08:11:58;;;;;;;6.18;1.10;;;;;;;7.60;100.00;99735.91;4997094;28;20038;-87
2023/04/11 08:14:24;;;;;;;2.13;0.85;;;;;;;7.75;100.00;99711.84;4967057;28;20037;-88
2023/04/11 08:16:50;;;;;;;0.77;0.63;;;;;;;8.00;100.00;99700.88;4993300;28;20026;-87
2023/04/11 08:19:18;;;;;;;3.92;1.58;;;;;;;8.32;100.00;99686.28;5007944;28;20064;-87
2023/04/11 08:21:44;;;;;;;2.05;0.95;;;;;;;8.78;100.00;99668.03;4985318;28;20039;-88
2023/04/11 08:24:10;;;;;;;1.27;1.05;;;;;;;8.92;100.00;99657.47;4979393;28;20040;-87
2023/04/11 08:26:35;;;;;;;2.38;1.33;;;;;;;9.03;100.00;99670.34;4979046;28;20034;-87
2023/04/11 08:29:02;;;;;;;3.60;1.55;;;;;;;8.69;100.00;99652.28;4979286;28;20089;-85
2023/04/11 08:31:28;;;;;;;3.35;1.10;;;;;;;8.41;100.00;99652.19;4981669;28;20069;-85
2023/04/11 08:33:53;;;;;;;1.23;1.13;;;;;;;8.10;100.00;99651.41;4998297;28;20030;-87
2023/04/11 08:36:19;;;;;;;1.88;1.15;;;;;;;7.87;100.00;99627.41;4994904;28;20041;-84
2023/04/11 08:38:45;;;;;;;3.80;1.50;;;;;;;7.83;100.00;99620.78;4962996;28;20357;-86
2023/04/11 08:41:11;;;;;;;2.20;1.10;;;;;;;7.91;100.00;99618.00;4995219;28;20128;-86
2023/04/11 08:43:40;;;;;;;2.28;1.00;;;;;;;8.05;100.00;99610.16;4995310;28;20031;-85
2023/04/11 08:46:06;;;;;;;4.13;2.13;;;;;;;8.03;100.00;99585.41;4978795;28;20037;-85
2023/04/11 08:48:33;;;;;;;2.72;1.10;;;;;;;8.21;100.00;99591.19;4994897;28;20034;-85
2023/04/11 08:50:58;;;;;;;5.93;3.28;;;;;;;8.26;100.00;99575.38;4966872;28;20038;-84
2023/04/11 08:53:25;;;;;;;3.25;1.52;;;;;;;8.45;100.00;99562.41;4978949;28;20033;-86
2023/04/11 08:55:51;;;;;;;4.07;1.20;;;;;;;8.49;100.00;99550.28;4994736;28;20495;-86
2023/04/11 08:58:17;;;;;;;4.65;1.45;;;;;;;8.70;100.00;99549.44;4951057;28;20060;-85
2023/04/11 09:00:43;;;;;;;4.78;1.92;;;;;;;8.96;100.00;99541.59;5013997;28;20449;-86
2023/04/11 09:03:10;;;;;;;4.50;2.60;;;;;;;9.15;100.00;99529.34;5010701;28;20026;-88
2023/04/11 09:05:39;;;;;;;7.57;4.07;;;;;;;8.92;100.00;99518.91;5016609;28;20034;-88
2023/04/11 09:08:12;;;;;;;4.40;2.03;;;;;;;8.62;100.00;99496.81;4998995;28;20033;-82
2023/04/11 09:10:40;;;;;;;6.38;2.80;;;;;;;8.77;100.00;99504.75;4994326;28;20061;-86
2023/04/11 09:13:24;;;;;;;14.43;5.82;;;;;;;9.02;100.00;99481.84;4994119;28;20084;-85
2023/04/11 09:16:04;;;;;;;8.88;3.97;;;;;;;9.51;100.00;99485.38;4961553;28;20547;-87
2023/04/11 09:18:35;;;;;;;4.82;1.95;;;;;;;9.55;100.00;99457.13;4978425;28;20038;-87
2023/04/11 09:21:09;;;;;;;6.88;2.53;;;;;;;9.62;100.00;99465.19;4994276;28;20030;-88
2023/04/11 09:23:36;;;;;;;8.38;3.78;;;;;;;9.50;100.00;99435.44;4978221;28;20042;-87
2023/04/11 09:26:05;;;;;;;9.43;3.38;;;;;;;9.62;100.00;99441.03;4977922;28;20030;-90
2023/04/11 09:28:44;;;;;;;5.85;2.20;;;;;;;9.78;100.00;99442.53;5027248;28;20097;-89
2023/04/11 09:31:11;;;;;;;9.27;3.28;;;;;;;9.43;100.00;99430.03;4997720;28;20034;-88
2023/04/11 09:33:37;;;;;;;8.25;4.28;;;;;;;9.07;100.00;99398.13;5007781;28;20109;-86
2023/04/11 09:36:17;;;;;;;10.25;4.78;;;;;;;9.09;100.00;99403.28;4984954;28;20168;-88
2023/04/11 09:38:43;;;;;;;9.35;3.45;;;;;;;9.10;100.00;99395.03;4977995;28;20088;-89
2023/04/11 09:41:09;;;;;;;8.82;3.60;;;;;;;9.14;100.00;99376.69;4993638;28;20034;-86
2023/04/11 09:43:56;;;;;;;9.23;4.78;;;;;;;9.42;100.00;99385.47;5011351;28;20041;-82
2023/04/11 09:46:22;;;;;;;16.67;6.25;;;;;;;9.64;100.00;99375.41;4977996;28;20435;-77
2023/04/11 09:48:49;;;;;;;12.60;5.45;;;;;;;9.60;100.00;99366.09;4994776;28;20131;-77
2023/04/11 09:51:16;;;;;;;15.90;6.38;;;;;;;9.46;100.00;99351.00;5023547;28;20123;-77
2023/04/11 09:53:44;;;;;;;12.40;4.68;;;;;;;9.52;100.00;99344.81;4981908;28;20156;-79
2023/04/11 09:56:10;;;;;;;7.30;3.17;;;;;;;9.50;100.00;99336.16;5012986;28;20026;-80
2023/04/11 09:58:37;;;;;;;7.85;4.50;;;;;;;9.61;100.00;99324.81;5009796;28;20030;-78
2023/04/11 10:01:06;;;;;;;6.63;3.20;;;;;;;9.61;100.00;99302.53;4996902;28;20065;-78
2023/04/11 10:03:34;;;;;;;5.50;2.95;;;;;;;9.45;100.00;99293.84;4981537;28;20045;-78
2023/04/11 10:06:04;;;;;;;6.00;2.65;;;;;;;9.27;100.00;99279.38;4976835;28;20037;-79
2023/04/11 10:08:32;;;;;;;3.15;2.10;;;;;;;9.21;100.00;99273.78;5012940;28;20026;-78
2023/04/11 10:11:02;;;;;;;9.23;2.22;;;;;;;9.23;100.00;99270.88;4985620;28;20383;-81
2023/04/11 10:13:41;;;;;;;3.50;2.13;;;;;;;9.47;100.00;99264.09;4993121;28;20468;-83
2023/04/11 10:16:08;;;;;;;6.25;2.75;;;;;;;9.71;100.00;99241.19;4982048;28;20112;-82
2023/04/11 10:18:35;;;;;;;9.70;2.65;;;;;;;9.66;100.00;99211.50;4996571;28;20149;-79
2023/04/11 10:21:01;;;;;;;4.55;2.03;;;;;;;9.81;100.00;99235.41;4975936;28;20038;-77
2023/04/11 10:23:26;;;;;;;2.50;1.40;;;;;;;9.68;100.00;99222.84;4977203;28;20128;-79
2023/04/11 10:26:00;;;;;;;2.88;1.23;;;;;;;9.50;100.00;99209.22;4993075;28;20464;-78
2023/04/11 10:28:36;;;;;;;2.95;1.63;;;;;;;9.34;100.00;99205.09;4978595;28;20060;-82
2023/04/11 10:31:07;;;;;;;3.25;1.48;;;;;;;9.25;100.00;99189.19;4996613;28;20490;-79
2023/04/11 10:33:35;;;;;;;3.85;1.25;;;;;;;9.23;100.00;99169.81;5012595;28;20471;-79
2023/04/11 10:36:11;;;;;;;3.17;1.55;;;;;;;9.29;100.00;99165.50;4964521;28;20109;-79
2023/04/11 10:38:42;;;;;;;2.85;1.40;;;;;;;9.35;100.00;99155.78;4989011;28;20041;-78
2023/04/11 10:41:30;;;;;;;4.38;1.83;;;;;;;9.49;100.00;99160.09;5013513;28;20088;-81
2023/04/11 10:44:16;;;;;;;1.45;0.80;;;;;;;9.46;100.00;99136.38;5012875;28;20072;-78
2023/04/11 10:47:03;;;;;;;1.02;0.82;;;;;;;9.49;100.00;99119.84;5007422;28;20472;-80
2023/04/11 10:49:34;;;;;;;0.60;0.60;;;;;;;9.55;100.00;99113.69;5010906;28;20472;-78
2023/04/11 10:52:20;;;;;;;0.50;0.50;;;;;;;9.68;100.00;99100.22;4996101;28;20157;-79
2023/04/11 10:54:46;;;;;;;0.40;0.40;;;;;;;9.70;100.00;99075.84;4996614;28;20518;-79
2023/04/11 10:57:13;;;;;;;0.50;0.50;;;;;;;9.82;100.00;99065.28;5007222;28;20400;-80
2023/04/11 10:59:38;;;;;;;0.40;0.40;;;;;;;9.79;100.00;99065.69;5007371;28;20084;-80
2023/04/11 11:02:04;;;;;;;0.70;0.70;;;;;;;9.71;100.00;99055.19;4977607;28;20092;-83
2023/04/11 11:04:35;;;;;;;0.40;0.40;;;;;;;9.65;100.00;99046.94;4998218;28;20034;-81
2023/04/11 11:07:05;;;;;;;0.50;0.50;;;;;;;9.67;100.00;99030.66;4980148;28;20057;-84
2023/04/11 11:09:32;;;;;;;0.40;0.40;;;;;;;9.71;100.00;99017.63;5012590;28;20487;-79
2023/04/11 11:12:11;;;;;;;0.50;0.50;;;;;;;9.73;100.00;99015.56;4979754;28;20479;-86
2023/04/11 11:14:38;;;;;;;0.40;0.40;;;;;;;9.67;100.00;99003.81;4980198;28;20026;-82
2023/04/11 11:17:05;;;;;;;0.40;0.40;;;;;;;9.74;100.00;98990.34;4987118;28;20030;-81
2023/04/11 11:19:31;;;;;;;0.32;0.32;;;;;;;9.83;100.00;98983.72;4960308;28;20038;-85
2023/04/11 11:22:03;;;;;;;0.40;0.40;;;;;;;9.90;100.00;98968.41;4976691;28;20053;-82
2023/04/11 11:24:29;;;;;;;0.50;0.50;;;;;;;9.97;100.00;98958.41;4982696;28;20069;-79
2023/04/11 11:26:55;;;;;;;2.05;1.20;;;;;;;10.04;100.00;98953.84;5002753;28;20042;-79
2023/04/11 11:29:36;;;;;;;1.75;1.20;;;;;;;10.29;100.00;98939.66;4991003;28;20097;-81
2023/04/11 11:32:02;;;;;;;0.40;0.40;;;;;;;10.44;100.00;98915.16;4996180;28;20041;-79
2023/04/11 11:34:30;;;;;;;0.63;0.63;;;;;;;10.55;100.00;98920.63;4997431;28;20054;-80